Terminal Aerodrome Forecast
Issued by NWS

Home | Current Version | Previous Version | Graphics & Text | Print | Product List | Glossary On
Versions: 1 2 3 4 5 6 7 8 9 10 11 12 13 14 15 16 17 18 19 20 21 22 23 24 25 26 27 28
000
FTUS43 KGRB 242327
TAFRHI
TAF
KRHI 242327Z 2500/2524 29009G15KT P6SM SCT017 OVC025
      TEMPO 2500/2504 -RA BKN017
     FM250700 29009KT P6SM BKN009 OVC017
     FM251400 30011G18KT P6SM BKN017 OVC030
     FM251700 30011G18KT P6SM SCT025 BKN035 PROB30 2517/2523 -RA
      BKN025=

USA.gov is the U.S. government's official web portal to all federal, state and local government web resources and services.